sensor_id;sensor_type;location;lat;lon;timestamp;P1;durP1;ratioP1;P2;durP2;ratioP2
84931;SDS011;75193;53.980;13.902;2024-02-21T00:01:39;13.52;;;4.90;;
84931;SDS011;75193;53.980;13.902;2024-02-21T00:04:04;14.60;;;4.78;;
84931;SDS011;75193;53.980;13.902;2024-02-21T00:06:29;12.07;;;3.72;;
84931;SDS011;75193;53.980;13.902;2024-02-21T00:08:55;15.13;;;6.13;;
84931;SDS011;75193;53.980;13.902;2024-02-21T00:11:21;12.40;;;4.78;;
84931;SDS011;75193;53.980;13.902;2024-02-21T00:13:47;17.13;;;5.13;;
84931;SDS011;75193;53.980;13.902;2024-02-21T00:16:13;16.77;;;4.70;;
84931;SDS011;75193;53.980;13.902;2024-02-21T00:18:40;18.83;;;4.70;;
84931;SDS011;75193;53.980;13.902;2024-02-21T00:21:06;14.98;;;4.75;;
84931;SDS011;75193;53.980;13.902;2024-02-21T00:23:31;15.43;;;4.70;;
84931;SDS011;75193;53.980;13.902;2024-02-21T00:25:57;14.60;;;4.75;;
84931;SDS011;75193;53.980;13.902;2024-02-21T00:28:22;16.17;;;4.32;;
84931;SDS011;75193;53.980;13.902;2024-02-21T00:30:48;12.93;;;5.07;;
84931;SDS011;75193;53.980;13.902;2024-02-21T00:33:15;9.73;;;4.45;;
84931;SDS011;75193;53.980;13.902;2024-02-21T00:35:41;13.15;;;4.90;;
84931;SDS011;75193;53.980;13.902;2024-02-21T00:38:07;14.82;;;5.35;;
84931;SDS011;75193;53.980;13.902;2024-02-21T00:40:32;10.98;;;4.75;;
84931;SDS011;75193;53.980;13.902;2024-02-21T00:42:58;17.70;;;5.90;;
84931;SDS011;75193;53.980;13.902;2024-02-21T00:45:23;13.10;;;4.93;;
84931;SDS011;75193;53.980;13.902;2024-02-21T00:47:49;17.25;;;5.05;;
84931;SDS011;75193;53.980;13.902;2024-02-21T00:50:14;12.27;;;4.65;;
84931;SDS011;75193;53.980;13.902;2024-02-21T00:52:40;20.15;;;6.38;;
84931;SDS011;75193;53.980;13.902;2024-02-21T00:55:06;15.68;;;5.05;;
84931;SDS011;75193;53.980;13.902;2024-02-21T00:57:32;16.63;;;5.57;;
84931;SDS011;75193;53.980;13.902;2024-02-21T00:59:57;10.60;;;4.80;;
84931;SDS011;75193;53.980;13.902;2024-02-21T01:02:23;16.65;;;5.63;;
84931;SDS011;75193;53.980;13.902;2024-02-21T01:04:48;17.45;;;5.80;;
84931;SDS011;75193;53.980;13.902;2024-02-21T01:07:14;12.93;;;4.68;;
84931;SDS011;75193;53.980;13.902;2024-02-21T01:09:39;17.55;;;6.07;;
84931;SDS011;75193;53.980;13.902;2024-02-21T01:12:05;18.13;;;6.22;;
84931;SDS011;75193;53.980;13.902;2024-02-21T01:16:56;16.25;;;5.88;;
84931;SDS011;75193;53.980;13.902;2024-02-21T01:19:21;12.57;;;5.90;;
84931;SDS011;75193;53.980;13.902;2024-02-21T01:21:47;17.50;;;7.10;;
84931;SDS011;75193;53.980;13.902;2024-02-21T01:24:12;21.35;;;6.65;;
84931;SDS011;75193;53.980;13.902;2024-02-21T01:26:40;19.58;;;7.28;;
84931;SDS011;75193;53.980;13.902;2024-02-21T01:29:06;20.90;;;6.78;;
84931;SDS011;75193;53.980;13.902;2024-02-21T01:31:31;14.73;;;6.88;;
84931;SDS011;75193;53.980;13.902;2024-02-21T01:33:57;17.98;;;7.45;;
84931;SDS011;75193;53.980;13.902;2024-02-21T01:38:48;21.00;;;7.35;;
84931;SDS011;75193;53.980;13.902;2024-02-21T01:41:14;16.23;;;6.43;;
84931;SDS011;75193;53.980;13.902;2024-02-21T01:43:39;26.92;;;8.25;;
84931;SDS011;75193;53.980;13.902;2024-02-21T01:46:05;24.60;;;8.30;;
84931;SDS011;75193;53.980;13.902;2024-02-21T01:48:30;8.05;;;5.82;;
84931;SDS011;75193;53.980;13.902;2024-02-21T01:50:56;18.10;;;7.93;;
84931;SDS011;75193;53.980;13.902;2024-02-21T01:53:27;22.63;;;8.57;;
84931;SDS011;75193;53.980;13.902;2024-02-21T01:55:55;18.60;;;7.95;;
84931;SDS011;75193;53.980;13.902;2024-02-21T01:58:21;25.92;;;8.45;;
84931;SDS011;75193;53.980;13.902;2024-02-21T02:00:48;22.38;;;7.82;;
84931;SDS011;75193;53.980;13.902;2024-02-21T02:03:13;29.73;;;9.60;;
84931;SDS011;75193;53.980;13.902;2024-02-21T02:05:45;22.02;;;9.40;;
84931;SDS011;75193;53.980;13.902;2024-02-21T02:08:15;25.13;;;9.75;;
84931;SDS011;75193;53.980;13.902;2024-02-21T02:10:41;26.23;;;8.57;;
84931;SDS011;75193;53.980;13.902;2024-02-21T02:13:07;18.00;;;8.10;;
84931;SDS011;75193;53.980;13.902;2024-02-21T02:15:43;25.10;;;9.52;;
84931;SDS011;75193;53.980;13.902;2024-02-21T02:18:10;27.95;;;10.20;;
84931;SDS011;75193;53.980;13.902;2024-02-21T02:20:36;27.38;;;9.48;;
84931;SDS011;75193;53.980;13.902;2024-02-21T02:23:09;22.83;;;9.05;;
84931;SDS011;75193;53.980;13.902;2024-02-21T02:25:37;27.42;;;10.55;;
84931;SDS011;75193;53.980;13.902;2024-02-21T02:28:05;25.17;;;9.00;;
84931;SDS011;75193;53.980;13.902;2024-02-21T02:30:32;24.92;;;10.60;;
84931;SDS011;75193;53.980;13.902;2024-02-21T02:32:59;24.85;;;10.55;;
84931;SDS011;75193;53.980;13.902;2024-02-21T02:35:25;22.63;;;10.02;;
84931;SDS011;75193;53.980;13.902;2024-02-21T02:37:50;27.10;;;12.52;;
84931;SDS011;75193;53.980;13.902;2024-02-21T02:40:16;24.67;;;11.50;;
84931;SDS011;75193;53.980;13.902;2024-02-21T02:42:43;22.05;;;10.52;;
84931;SDS011;75193;53.980;13.902;2024-02-21T02:45:09;20.98;;;9.73;;
84931;SDS011;75193;53.980;13.902;2024-02-21T02:47:35;23.23;;;11.02;;
84931;SDS011;75193;53.980;13.902;2024-02-21T02:50:00;24.02;;;9.30;;
84931;SDS011;75193;53.980;13.902;2024-02-21T02:52:26;28.38;;;11.15;;
84931;SDS011;75193;53.980;13.902;2024-02-21T02:54:52;28.88;;;12.07;;
84931;SDS011;75193;53.980;13.902;2024-02-21T02:57:20;25.73;;;10.23;;
84931;SDS011;75193;53.980;13.902;2024-02-21T02:59:49;22.08;;;10.23;;
84931;SDS011;75193;53.980;13.902;2024-02-21T03:02:15;28.30;;;12.05;;
84931;SDS011;75193;53.980;13.902;2024-02-21T03:04:42;19.38;;;10.48;;
84931;SDS011;75193;53.980;13.902;2024-02-21T03:07:08;23.25;;;10.93;;
84931;SDS011;75193;53.980;13.902;2024-02-21T03:09:36;21.10;;;10.02;;
84931;SDS011;75193;53.980;13.902;2024-02-21T03:12:05;21.80;;;9.07;;
84931;SDS011;75193;53.980;13.902;2024-02-21T03:14:31;21.33;;;9.50;;
84931;SDS011;75193;53.980;13.902;2024-02-21T03:16:57;29.25;;;11.18;;
84931;SDS011;75193;53.980;13.902;2024-02-21T03:19:24;25.25;;;9.75;;
84931;SDS011;75193;53.980;13.902;2024-02-21T03:21:50;24.63;;;10.40;;
84931;SDS011;75193;53.980;13.902;2024-02-21T03:24:16;15.13;;;8.43;;
84931;SDS011;75193;53.980;13.902;2024-02-21T03:26:42;26.52;;;10.50;;
84931;SDS011;75193;53.980;13.902;2024-02-21T03:29:08;19.38;;;9.43;;
84931;SDS011;75193;53.980;13.902;2024-02-21T03:31:36;26.80;;;11.88;;
84931;SDS011;75193;53.980;13.902;2024-02-21T03:34:02;24.88;;;10.00;;
84931;SDS011;75193;53.980;13.902;2024-02-21T03:36:28;20.98;;;10.20;;
84931;SDS011;75193;53.980;13.902;2024-02-21T03:38:54;22.98;;;10.90;;
84931;SDS011;75193;53.980;13.902;2024-02-21T03:41:20;17.05;;;8.82;;
84931;SDS011;75193;53.980;13.902;2024-02-21T03:43:46;23.60;;;9.15;;
84931;SDS011;75193;53.980;13.902;2024-02-21T03:46:11;27.80;;;11.15;;
84931;SDS011;75193;53.980;13.902;2024-02-21T03:48:37;25.75;;;9.63;;
84931;SDS011;75193;53.980;13.902;2024-02-21T03:51:02;21.95;;;10.52;;
84931;SDS011;75193;53.980;13.902;2024-02-21T03:53:28;17.33;;;9.38;;
84931;SDS011;75193;53.980;13.902;2024-02-21T03:55:54;23.40;;;9.32;;
84931;SDS011;75193;53.980;13.902;2024-02-21T03:58:20;23.08;;;8.98;;
84931;SDS011;75193;53.980;13.902;2024-02-21T04:00:45;20.13;;;9.52;;
84931;SDS011;75193;53.980;13.902;2024-02-21T04:03:11;19.88;;;9.05;;
84931;SDS011;75193;53.980;13.902;2024-02-21T04:05:37;19.67;;;9.20;;
84931;SDS011;75193;53.980;13.902;2024-02-21T04:08:05;13.27;;;7.45;;
84931;SDS011;75193;53.980;13.902;2024-02-21T04:10:31;19.00;;;8.57;;
84931;SDS011;75193;53.980;13.902;2024-02-21T04:12:57;20.05;;;8.20;;
84931;SDS011;75193;53.980;13.902;2024-02-21T04:15:23;17.75;;;7.88;;
84931;SDS011;75193;53.980;13.902;2024-02-21T04:17:48;15.85;;;7.90;;
84931;SDS011;75193;53.980;13.902;2024-02-21T04:20:14;20.88;;;10.25;;
84931;SDS011;75193;53.980;13.902;2024-02-21T04:22:42;20.40;;;8.77;;
84931;SDS011;75193;53.980;13.902;2024-02-21T04:25:09;16.85;;;7.93;;
84931;SDS011;75193;53.980;13.902;2024-02-21T04:27:36;17.05;;;9.50;;
84931;SDS011;75193;53.980;13.902;2024-02-21T04:30:04;18.02;;;8.82;;
84931;SDS011;75193;53.980;13.902;2024-02-21T04:32:32;24.75;;;9.98;;
84931;SDS011;75193;53.980;13.902;2024-02-21T04:34:57;24.33;;;9.27;;
84931;SDS011;75193;53.980;13.902;2024-02-21T04:37:23;17.52;;;7.85;;
84931;SDS011;75193;53.980;13.902;2024-02-21T04:39:49;20.58;;;9.48;;
84931;SDS011;75193;53.980;13.902;2024-02-21T04:42:15;18.90;;;8.60;;
84931;SDS011;75193;53.980;13.902;2024-02-21T04:44:40;21.50;;;9.57;;
84931;SDS011;75193;53.980;13.902;2024-02-21T04:47:06;19.02;;;8.68;;
84931;SDS011;75193;53.980;13.902;2024-02-21T04:51:58;14.98;;;7.68;;
84931;SDS011;75193;53.980;13.902;2024-02-21T04:54:23;19.35;;;8.82;;
84931;SDS011;75193;53.980;13.902;2024-02-21T04:56:49;16.20;;;8.70;;
84931;SDS011;75193;53.980;13.902;2024-02-21T04:59:15;20.08;;;8.88;;
84931;SDS011;75193;53.980;13.902;2024-02-21T05:01:40;15.73;;;9.23;;
84931;SDS011;75193;53.980;13.902;2024-02-21T05:04:06;16.25;;;8.70;;
84931;SDS011;75193;53.980;13.902;2024-02-21T05:06:36;17.85;;;8.90;;
84931;SDS011;75193;53.980;13.902;2024-02-21T05:09:05;16.80;;;8.52;;
84931;SDS011;75193;53.980;13.902;2024-02-21T05:11:31;21.35;;;9.82;;
84931;SDS011;75193;53.980;13.902;2024-02-21T05:13:57;15.35;;;8.07;;
84931;SDS011;75193;53.980;13.902;2024-02-21T05:16:22;17.38;;;8.77;;
84931;SDS011;75193;53.980;13.902;2024-02-21T05:18:47;24.20;;;9.00;;
84931;SDS011;75193;53.980;13.902;2024-02-21T05:21:13;14.57;;;8.68;;
84931;SDS011;75193;53.980;13.902;2024-02-21T05:23:39;13.43;;;6.93;;
84931;SDS011;75193;53.980;13.902;2024-02-21T05:26:05;15.65;;;8.05;;
84931;SDS011;75193;53.980;13.902;2024-02-21T05:28:31;13.48;;;7.43;;
84931;SDS011;75193;53.980;13.902;2024-02-21T05:30:57;14.60;;;6.47;;
84931;SDS011;75193;53.980;13.902;2024-02-21T05:33:23;11.55;;;6.95;;
84931;SDS011;75193;53.980;13.902;2024-02-21T05:35:49;17.30;;;7.30;;
84931;SDS011;75193;53.980;13.902;2024-02-21T05:38:14;21.80;;;7.90;;
84931;SDS011;75193;53.980;13.902;2024-02-21T05:40:40;17.73;;;8.48;;
84931;SDS011;75193;53.980;13.902;2024-02-21T05:45:35;19.75;;;9.10;;
84931;SDS011;75193;53.980;13.902;2024-02-21T05:48:00;17.33;;;9.45;;
84931;SDS011;75193;53.980;13.902;2024-02-21T05:50:26;17.08;;;8.93;;
84931;SDS011;75193;53.980;13.902;2024-02-21T05:52:54;13.98;;;8.23;;
84931;SDS011;75193;53.980;13.902;2024-02-21T05:55:20;12.32;;;6.47;;
84931;SDS011;75193;53.980;13.902;2024-02-21T06:00:12;14.15;;;7.40;;
84931;SDS011;75193;53.980;13.902;2024-02-21T06:02:38;9.55;;;5.90;;
84931;SDS011;75193;53.980;13.902;2024-02-21T06:05:05;14.73;;;8.32;;
84931;SDS011;75193;53.980;13.902;2024-02-21T06:07:32;14.85;;;8.77;;
84931;SDS011;75193;53.980;13.902;2024-02-21T06:09:59;18.42;;;8.90;;
84931;SDS011;75193;53.980;13.902;2024-02-21T06:12:25;13.35;;;7.65;;
84931;SDS011;75193;53.980;13.902;2024-02-21T06:14:50;18.95;;;8.02;;
84931;SDS011;75193;53.980;13.902;2024-02-21T06:17:16;16.65;;;8.75;;
84931;SDS011;75193;53.980;13.902;2024-02-21T06:19:42;8.10;;;5.82;;
84931;SDS011;75193;53.980;13.902;2024-02-21T06:22:08;14.30;;;6.55;;
84931;SDS011;75193;53.980;13.902;2024-02-21T06:24:34;13.65;;;6.18;;
84931;SDS011;75193;53.980;13.902;2024-02-21T06:27:01;10.48;;;7.00;;
84931;SDS011;75193;53.980;13.902;2024-02-21T06:29:27;12.55;;;7.03;;
84931;SDS011;75193;53.980;13.902;2024-02-21T06:31:52;15.48;;;7.05;;
84931;SDS011;75193;53.980;13.902;2024-02-21T06:34:18;19.08;;;9.27;;
84931;SDS011;75193;53.980;13.902;2024-02-21T06:36:44;14.98;;;7.35;;
84931;SDS011;75193;53.980;13.902;2024-02-21T06:39:10;12.55;;;7.47;;
84931;SDS011;75193;53.980;13.902;2024-02-21T06:41:36;21.08;;;7.60;;
84931;SDS011;75193;53.980;13.902;2024-02-21T06:44:02;18.83;;;8.70;;
84931;SDS011;75193;53.980;13.902;2024-02-21T06:46:28;9.77;;;6.25;;
84931;SDS011;75193;53.980;13.902;2024-02-21T06:48:55;13.95;;;8.40;;
84931;SDS011;75193;53.980;13.902;2024-02-21T06:51:23;14.13;;;8.48;;
84931;SDS011;75193;53.980;13.902;2024-02-21T06:53:53;19.52;;;8.82;;
84931;SDS011;75193;53.980;13.902;2024-02-21T06:56:19;13.80;;;7.22;;
84931;SDS011;75193;53.980;13.902;2024-02-21T06:58:44;13.98;;;8.30;;
84931;SDS011;75193;53.980;13.902;2024-02-21T07:01:10;17.98;;;8.90;;
84931;SDS011;75193;53.980;13.902;2024-02-21T07:03:36;14.90;;;8.05;;
84931;SDS011;75193;53.980;13.902;2024-02-21T07:06:02;15.95;;;7.53;;
84931;SDS011;75193;53.980;13.902;2024-02-21T07:08:28;10.88;;;5.43;;
84931;SDS011;75193;53.980;13.902;2024-02-21T07:10:53;19.30;;;8.20;;
84931;SDS011;75193;53.980;13.902;2024-02-21T07:13:19;11.88;;;6.97;;
84931;SDS011;75193;53.980;13.902;2024-02-21T07:15:45;14.18;;;8.18;;
84931;SDS011;75193;53.980;13.902;2024-02-21T07:18:11;12.10;;;6.53;;
84931;SDS011;75193;53.980;13.902;2024-02-21T07:20:36;12.68;;;7.57;;
84931;SDS011;75193;53.980;13.902;2024-02-21T07:25:28;14.70;;;7.40;;
84931;SDS011;75193;53.980;13.902;2024-02-21T07:27:53;10.85;;;5.78;;
84931;SDS011;75193;53.980;13.902;2024-02-21T07:30:19;10.77;;;6.30;;
84931;SDS011;75193;53.980;13.902;2024-02-21T07:32:44;18.33;;;9.15;;
84931;SDS011;75193;53.980;13.902;2024-02-21T07:35:10;15.32;;;8.73;;
84931;SDS011;75193;53.980;13.902;2024-02-21T07:37:36;13.50;;;8.38;;
84931;SDS011;75193;53.980;13.902;2024-02-21T07:40:05;13.57;;;8.18;;
84931;SDS011;75193;53.980;13.902;2024-02-21T07:42:32;13.00;;;6.03;;
84931;SDS011;75193;53.980;13.902;2024-02-21T07:44:57;15.98;;;8.23;;
84931;SDS011;75193;53.980;13.902;2024-02-21T07:47:23;14.30;;;7.88;;
84931;SDS011;75193;53.980;13.902;2024-02-21T07:49:49;18.42;;;7.03;;
84931;SDS011;75193;53.980;13.902;2024-02-21T07:52:15;15.50;;;7.75;;
84931;SDS011;75193;53.980;13.902;2024-02-21T07:54:40;16.52;;;7.78;;
84931;SDS011;75193;53.980;13.902;2024-02-21T07:59:34;11.38;;;6.65;;
84931;SDS011;75193;53.980;13.902;2024-02-21T08:02:00;13.05;;;7.30;;
84931;SDS011;75193;53.980;13.902;2024-02-21T08:04:25;12.88;;;6.97;;
84931;SDS011;75193;53.980;13.902;2024-02-21T08:06:54;15.68;;;7.10;;
84931;SDS011;75193;53.980;13.902;2024-02-21T08:09:24;15.73;;;8.23;;
84931;SDS011;75193;53.980;13.902;2024-02-21T08:11:49;11.27;;;6.47;;
84931;SDS011;75193;53.980;13.902;2024-02-21T08:14:15;16.48;;;7.07;;
84931;SDS011;75193;53.980;13.902;2024-02-21T08:19:07;9.13;;;6.38;;
84931;SDS011;75193;53.980;13.902;2024-02-21T08:21:32;12.02;;;7.53;;
84931;SDS011;75193;53.980;13.902;2024-02-21T08:23:58;10.00;;;4.88;;
84931;SDS011;75193;53.980;13.902;2024-02-21T08:26:23;15.20;;;7.10;;
84931;SDS011;75193;53.980;13.902;2024-02-21T08:28:48;11.38;;;6.70;;
84931;SDS011;75193;53.980;13.902;2024-02-21T08:31:21;10.70;;;6.32;;
84931;SDS011;75193;53.980;13.902;2024-02-21T08:33:48;8.88;;;5.35;;
84931;SDS011;75193;53.980;13.902;2024-02-21T08:36:17;9.93;;;5.43;;
84931;SDS011;75193;53.980;13.902;2024-02-21T08:38:44;13.48;;;7.68;;
84931;SDS011;75193;53.980;13.902;2024-02-21T08:41:32;12.90;;;6.25;;
84931;SDS011;75193;53.980;13.902;2024-02-21T08:43:57;10.50;;;5.53;;
84931;SDS011;75193;53.980;13.902;2024-02-21T08:46:23;10.45;;;5.47;;
84931;SDS011;75193;53.980;13.902;2024-02-21T08:48:52;11.43;;;6.40;;
84931;SDS011;75193;53.980;13.902;2024-02-21T08:51:18;12.50;;;6.70;;
84931;SDS011;75193;53.980;13.902;2024-02-21T08:53:45;11.88;;;6.80;;
84931;SDS011;75193;53.980;13.902;2024-02-21T08:56:10;8.02;;;4.32;;
84931;SDS011;75193;53.980;13.902;2024-02-21T08:58:36;12.38;;;6.40;;
84931;SDS011;75193;53.980;13.902;2024-02-21T09:01:02;14.07;;;6.88;;
84931;SDS011;75193;53.980;13.902;2024-02-21T09:03:32;10.93;;;6.57;;
84931;SDS011;75193;53.980;13.902;2024-02-21T09:05:58;10.70;;;6.68;;
84931;SDS011;75193;53.980;13.902;2024-02-21T09:08:24;8.60;;;5.22;;
84931;SDS011;75193;53.980;13.902;2024-02-21T09:10:50;9.93;;;5.45;;
84931;SDS011;75193;53.980;13.902;2024-02-21T09:13:15;8.82;;;4.95;;
84931;SDS011;75193;53.980;13.902;2024-02-21T09:15:42;7.40;;;5.15;;
84931;SDS011;75193;53.980;13.902;2024-02-21T09:18:07;9.07;;;4.35;;
84931;SDS011;75193;53.980;13.902;2024-02-21T09:20:33;7.75;;;5.18;;
84931;SDS011;75193;53.980;13.902;2024-02-21T09:22:59;5.80;;;4.05;;
84931;SDS011;75193;53.980;13.902;2024-02-21T09:25:24;9.90;;;5.38;;
84931;SDS011;75193;53.980;13.902;2024-02-21T09:27:50;7.65;;;4.60;;
84931;SDS011;75193;53.980;13.902;2024-02-21T09:30:17;7.78;;;4.38;;
84931;SDS011;75193;53.980;13.902;2024-02-21T09:32:42;12.50;;;6.00;;
84931;SDS011;75193;53.980;13.902;2024-02-21T09:35:08;6.43;;;3.97;;
84931;SDS011;75193;53.980;13.902;2024-02-21T09:37:33;8.35;;;5.05;;
84931;SDS011;75193;53.980;13.902;2024-02-21T09:39:59;8.10;;;5.18;;
84931;SDS011;75193;53.980;13.902;2024-02-21T09:42:39;11.13;;;5.60;;
84931;SDS011;75193;53.980;13.902;2024-02-21T09:45:13;9.43;;;5.55;;
84931;SDS011;75193;53.980;13.902;2024-02-21T09:50:23;7.53;;;4.05;;
84931;SDS011;75193;53.980;13.902;2024-02-21T09:52:50;9.60;;;4.40;;
84931;SDS011;75193;53.980;13.902;2024-02-21T09:55:17;8.90;;;4.13;;
84931;SDS011;75193;53.980;13.902;2024-02-21T09:57:44;6.93;;;3.70;;
84931;SDS011;75193;53.980;13.902;2024-02-21T10:00:09;6.03;;;4.03;;
84931;SDS011;75193;53.980;13.902;2024-02-21T10:02:35;7.95;;;3.42;;
84931;SDS011;75193;53.980;13.902;2024-02-21T10:05:02;2.72;;;1.90;;
84931;SDS011;75193;53.980;13.902;2024-02-21T10:07:30;6.22;;;3.40;;
84931;SDS011;75193;53.980;13.902;2024-02-21T10:10:02;3.05;;;2.70;;
84931;SDS011;75193;53.980;13.902;2024-02-21T10:12:28;4.25;;;2.38;;
84931;SDS011;75193;53.980;13.902;2024-02-21T10:15:03;4.13;;;2.08;;
84931;SDS011;75193;53.980;13.902;2024-02-21T10:17:32;2.80;;;1.55;;
84931;SDS011;75193;53.980;13.902;2024-02-21T10:20:10;2.47;;;1.90;;
84931;SDS011;75193;53.980;13.902;2024-02-21T10:22:37;5.75;;;1.67;;
84931;SDS011;75193;53.980;13.902;2024-02-21T10:25:13;1.60;;;1.50;;
84931;SDS011;75193;53.980;13.902;2024-02-21T10:27:39;2.65;;;1.27;;
84931;SDS011;75193;53.980;13.902;2024-02-21T10:30:07;2.58;;;1.98;;
84931;SDS011;75193;53.980;13.902;2024-02-21T10:32:48;3.50;;;2.20;;
84931;SDS011;75193;53.980;13.902;2024-02-21T10:37:56;3.13;;;1.83;;
84931;SDS011;75193;53.980;13.902;2024-02-21T10:40:26;2.13;;;1.48;;
84931;SDS011;75193;53.980;13.902;2024-02-21T10:42:57;3.30;;;1.45;;
84931;SDS011;75193;53.980;13.902;2024-02-21T10:45:34;3.20;;;2.50;;
84931;SDS011;75193;53.980;13.902;2024-02-21T10:48:12;2.08;;;1.13;;
84931;SDS011;75193;53.980;13.902;2024-02-21T10:53:38;1.65;;;1.40;;
84931;SDS011;75193;53.980;13.902;2024-02-21T10:56:33;2.42;;;1.85;;
84931;SDS011;75193;53.980;13.902;2024-02-21T10:59:02;3.17;;;1.60;;
84931;SDS011;75193;53.980;13.902;2024-02-21T11:01:29;2.50;;;1.98;;
84931;SDS011;75193;53.980;13.902;2024-02-21T11:04:02;3.40;;;2.38;;
84931;SDS011;75193;53.980;13.902;2024-02-21T11:06:29;3.28;;;2.28;;
84931;SDS011;75193;53.980;13.902;2024-02-21T11:09:13;2.95;;;2.38;;
84931;SDS011;75193;53.980;13.902;2024-02-21T11:11:40;2.78;;;2.08;;
84931;SDS011;75193;53.980;13.902;2024-02-21T11:14:19;3.38;;;2.13;;
84931;SDS011;75193;53.980;13.902;2024-02-21T11:16:46;2.55;;;1.98;;
84931;SDS011;75193;53.980;13.902;2024-02-21T11:21:59;3.67;;;2.60;;
84931;SDS011;75193;53.980;13.902;2024-02-21T11:24:29;2.42;;;1.85;;
84931;SDS011;75193;53.980;13.902;2024-02-21T11:27:07;1.27;;;0.90;;
84931;SDS011;75193;53.980;13.902;2024-02-21T11:29:39;1.38;;;1.20;;
84931;SDS011;75193;53.980;13.902;2024-02-21T11:32:14;1.45;;;1.10;;
84931;SDS011;75193;53.980;13.902;2024-02-21T11:34:41;0.85;;;0.73;;
84931;SDS011;75193;53.980;13.902;2024-02-21T11:37:17;1.73;;;0.90;;
84931;SDS011;75193;53.980;13.902;2024-02-21T11:39:43;3.20;;;1.67;;
84931;SDS011;75193;53.980;13.902;2024-02-21T11:42:08;3.08;;;1.10;;
84931;SDS011;75193;53.980;13.902;2024-02-21T11:44:36;1.50;;;1.13;;
84931;SDS011;75193;53.980;13.902;2024-02-21T11:47:06;2.58;;;1.40;;
84931;SDS011;75193;53.980;13.902;2024-02-21T11:49:36;1.10;;;1.00;;
84931;SDS011;75193;53.980;13.902;2024-02-21T11:52:03;1.30;;;1.10;;
84931;SDS011;75193;53.980;13.902;2024-02-21T11:54:32;1.60;;;1.10;;
84931;SDS011;75193;53.980;13.902;2024-02-21T11:56:59;1.17;;;0.90;;
84931;SDS011;75193;53.980;13.902;2024-02-21T11:59:25;2.72;;;1.52;;
84931;SDS011;75193;53.980;13.902;2024-02-21T12:01:52;2.15;;;0.95;;
84931;SDS011;75193;53.980;13.902;2024-02-21T12:04:18;3.72;;;1.10;;
84931;SDS011;75193;53.980;13.902;2024-02-21T12:06:49;1.33;;;1.00;;
84931;SDS011;75193;53.980;13.902;2024-02-21T12:09:15;4.13;;;1.02;;
84931;SDS011;75193;53.980;13.902;2024-02-21T12:11:41;1.35;;;0.75;;
84931;SDS011;75193;53.980;13.902;2024-02-21T12:14:07;1.00;;;0.90;;
84931;SDS011;75193;53.980;13.902;2024-02-21T12:16:34;2.47;;;1.17;;
84931;SDS011;75193;53.980;13.902;2024-02-21T12:19:02;0.52;;;0.47;;
84931;SDS011;75193;53.980;13.902;2024-02-21T12:21:32;4.88;;;1.27;;
84931;SDS011;75193;53.980;13.902;2024-02-21T12:24:00;1.65;;;1.10;;
84931;SDS011;75193;53.980;13.902;2024-02-21T12:26:25;1.85;;;0.93;;
84931;SDS011;75193;53.980;13.902;2024-02-21T12:28:52;1.55;;;1.08;;
84931;SDS011;75193;53.980;13.902;2024-02-21T12:31:20;2.30;;;0.95;;
84931;SDS011;75193;53.980;13.902;2024-02-21T12:33:46;1.83;;;1.20;;
84931;SDS011;75193;53.980;13.902;2024-02-21T12:36:12;1.75;;;1.10;;
84931;SDS011;75193;53.980;13.902;2024-02-21T12:38:37;2.05;;;0.95;;
84931;SDS011;75193;53.980;13.902;2024-02-21T12:41:03;1.58;;;0.88;;
84931;SDS011;75193;53.980;13.902;2024-02-21T12:43:28;3.55;;;1.30;;
84931;SDS011;75193;53.980;13.902;2024-02-21T12:45:54;1.15;;;0.98;;
84931;SDS011;75193;53.980;13.902;2024-02-21T12:48:20;2.15;;;1.23;;
84931;SDS011;75193;53.980;13.902;2024-02-21T12:53:20;1.10;;;0.70;;
84931;SDS011;75193;53.980;13.902;2024-02-21T12:55:49;3.47;;;1.40;;
84931;SDS011;75193;53.980;13.902;2024-02-21T13:00:40;1.80;;;1.10;;
84931;SDS011;75193;53.980;13.902;2024-02-21T13:03:06;3.00;;;1.30;;
84931;SDS011;75193;53.980;13.902;2024-02-21T13:05:32;1.48;;;1.33;;
84931;SDS011;75193;53.980;13.902;2024-02-21T13:07:58;3.00;;;1.65;;
84931;SDS011;75193;53.980;13.902;2024-02-21T13:10:24;3.28;;;1.45;;
84931;SDS011;75193;53.980;13.902;2024-02-21T13:12:50;1.05;;;0.93;;
84931;SDS011;75193;53.980;13.902;2024-02-21T13:15:16;2.08;;;1.35;;
84931;SDS011;75193;53.980;13.902;2024-02-21T13:17:43;3.22;;;1.08;;
84931;SDS011;75193;53.980;13.902;2024-02-21T13:20:09;3.03;;;1.10;;
84931;SDS011;75193;53.980;13.902;2024-02-21T13:22:36;0.95;;;0.85;;
84931;SDS011;75193;53.980;13.902;2024-02-21T13:25:02;1.73;;;1.20;;
84931;SDS011;75193;53.980;13.902;2024-02-21T13:27:28;2.67;;;1.50;;
84931;SDS011;75193;53.980;13.902;2024-02-21T13:32:19;1.98;;;1.60;;
84931;SDS011;75193;53.980;13.902;2024-02-21T13:37:10;2.08;;;1.75;;
84931;SDS011;75193;53.980;13.902;2024-02-21T13:39:36;3.17;;;1.67;;
84931;SDS011;75193;53.980;13.902;2024-02-21T13:42:02;2.10;;;1.30;;
84931;SDS011;75193;53.980;13.902;2024-02-21T13:44:31;1.63;;;1.45;;
84931;SDS011;75193;53.980;13.902;2024-02-21T13:46:57;3.22;;;1.40;;
84931;SDS011;75193;53.980;13.902;2024-02-21T13:49:23;2.05;;;1.08;;
84931;SDS011;75193;53.980;13.902;2024-02-21T13:51:48;1.65;;;1.30;;
84931;SDS011;75193;53.980;13.902;2024-02-21T13:54:14;2.30;;;1.38;;
84931;SDS011;75193;53.980;13.902;2024-02-21T13:56:42;1.50;;;1.40;;
84931;SDS011;75193;53.980;13.902;2024-02-21T13:59:08;2.05;;;1.08;;
84931;SDS011;75193;53.980;13.902;2024-02-21T14:01:33;3.35;;;1.20;;
84931;SDS011;75193;53.980;13.902;2024-02-21T14:04:00;2.33;;;1.38;;
84931;SDS011;75193;53.980;13.902;2024-02-21T14:06:27;0.88;;;0.68;;
84931;SDS011;75193;53.980;13.902;2024-02-21T14:08:52;1.42;;;1.00;;
84931;SDS011;75193;53.980;13.902;2024-02-21T14:11:17;1.95;;;0.90;;
84931;SDS011;75193;53.980;13.902;2024-02-21T14:16:10;1.70;;;0.90;;
84931;SDS011;75193;53.980;13.902;2024-02-21T14:18:41;1.98;;;1.10;;
84931;SDS011;75193;53.980;13.902;2024-02-21T14:21:10;2.30;;;1.20;;
84931;SDS011;75193;53.980;13.902;2024-02-21T14:23:37;1.50;;;1.15;;
84931;SDS011;75193;53.980;13.902;2024-02-21T14:26:03;2.72;;;2.53;;
84931;SDS011;75193;53.980;13.902;2024-02-21T14:28:29;1.35;;;1.10;;
84931;SDS011;75193;53.980;13.902;2024-02-21T14:30:54;3.17;;;1.20;;
84931;SDS011;75193;53.980;13.902;2024-02-21T14:33:26;1.58;;;1.35;;
84931;SDS011;75193;53.980;13.902;2024-02-21T14:35:52;1.52;;;1.10;;
84931;SDS011;75193;53.980;13.902;2024-02-21T14:38:18;2.80;;;1.65;;
84931;SDS011;75193;53.980;13.902;2024-02-21T14:40:44;1.27;;;1.10;;
84931;SDS011;75193;53.980;13.902;2024-02-21T14:45:36;2.03;;;1.40;;
84931;SDS011;75193;53.980;13.902;2024-02-21T14:48:03;1.90;;;1.45;;
84931;SDS011;75193;53.980;13.902;2024-02-21T14:50:29;2.97;;;1.42;;
84931;SDS011;75193;53.980;13.902;2024-02-21T14:52:54;2.08;;;1.20;;
84931;SDS011;75193;53.980;13.902;2024-02-21T14:57:45;2.10;;;1.20;;
84931;SDS011;75193;53.980;13.902;2024-02-21T15:00:11;2.30;;;1.35;;
84931;SDS011;75193;53.980;13.902;2024-02-21T15:02:37;1.75;;;1.40;;
84931;SDS011;75193;53.980;13.902;2024-02-21T15:07:31;3.25;;;1.13;;
84931;SDS011;75193;53.980;13.902;2024-02-21T15:09:57;1.63;;;1.20;;
84931;SDS011;75193;53.980;13.902;2024-02-21T15:12:23;1.55;;;1.45;;
84931;SDS011;75193;53.980;13.902;2024-02-21T15:17:14;1.85;;;1.10;;